sensor_id;sensor_type;location;lat;lon;timestamp;P1;durP1;ratioP1;P2;durP2;ratioP2
43527;SDS011;52359;42.658;23.320;2022-09-01T00:01:33;14.95;;;11.35;;
43527;SDS011;52359;42.658;23.320;2022-09-01T00:03:59;16.98;;;12.27;;
43527;SDS011;52359;42.658;23.320;2022-09-01T00:06:28;22.10;;;11.75;;
43527;SDS011;52359;42.658;23.320;2022-09-01T00:08:56;21.45;;;11.50;;
43527;SDS011;52359;42.658;23.320;2022-09-01T00:11:23;19.73;;;12.43;;
43527;SDS011;52359;42.658;23.320;2022-09-01T00:13:50;17.80;;;10.85;;
43527;SDS011;52359;42.658;23.320;2022-09-01T00:16:17;18.55;;;12.20;;
43527;SDS011;52359;42.658;23.320;2022-09-01T00:18:45;21.65;;;11.38;;
43527;SDS011;52359;42.658;23.320;2022-09-01T00:21:14;22.52;;;12.93;;
43527;SDS011;52359;42.658;23.320;2022-09-01T00:23:41;21.73;;;12.75;;
43527;SDS011;52359;42.658;23.320;2022-09-01T00:26:07;18.70;;;13.60;;
43527;SDS011;52359;42.658;23.320;2022-09-01T00:28:34;25.77;;;14.32;;
43527;SDS011;52359;42.658;23.320;2022-09-01T00:31:01;26.10;;;14.70;;
43527;SDS011;52359;42.658;23.320;2022-09-01T00:33:28;31.83;;;14.48;;
43527;SDS011;52359;42.658;23.320;2022-09-01T00:35:54;21.15;;;15.40;;
43527;SDS011;52359;42.658;23.320;2022-09-01T00:38:20;22.65;;;14.43;;
43527;SDS011;52359;42.658;23.320;2022-09-01T00:40:46;22.35;;;14.73;;
43527;SDS011;52359;42.658;23.320;2022-09-01T00:43:15;22.98;;;14.02;;
43527;SDS011;52359;42.658;23.320;2022-09-01T00:45:43;27.17;;;14.88;;
43527;SDS011;52359;42.658;23.320;2022-09-01T00:48:09;20.27;;;14.57;;
43527;SDS011;52359;42.658;23.320;2022-09-01T00:50:35;17.85;;;14.55;;
43527;SDS011;52359;42.658;23.320;2022-09-01T00:53:04;20.52;;;13.85;;
43527;SDS011;52359;42.658;23.320;2022-09-01T00:55:32;25.05;;;13.90;;
43527;SDS011;52359;42.658;23.320;2022-09-01T00:58:01;25.05;;;14.77;;
43527;SDS011;52359;42.658;23.320;2022-09-01T01:00:29;25.75;;;14.30;;
43527;SDS011;52359;42.658;23.320;2022-09-01T01:02:55;19.98;;;13.82;;
43527;SDS011;52359;42.658;23.320;2022-09-01T01:05:28;20.92;;;13.48;;
43527;SDS011;52359;42.658;23.320;2022-09-01T01:07:57;22.42;;;13.50;;
43527;SDS011;52359;42.658;23.320;2022-09-01T01:10:24;14.68;;;13.18;;
43527;SDS011;52359;42.658;23.320;2022-09-01T01:12:50;22.27;;;13.88;;
43527;SDS011;52359;42.658;23.320;2022-09-01T01:15:18;18.23;;;13.02;;
43527;SDS011;52359;42.658;23.320;2022-09-01T01:17:44;25.98;;;12.57;;
43527;SDS011;52359;42.658;23.320;2022-09-01T01:20:11;21.45;;;12.88;;
43527;SDS011;52359;42.658;23.320;2022-09-01T01:26:12;18.48;;;12.93;;
43527;SDS011;52359;42.658;23.320;2022-09-01T01:30:49;32.17;;;13.80;;
43527;SDS011;52359;42.658;23.320;2022-09-01T01:33:20;15.77;;;13.48;;
43527;SDS011;52359;42.658;23.320;2022-09-01T01:35:46;20.63;;;14.65;;
43527;SDS011;52359;42.658;23.320;2022-09-01T01:38:12;20.88;;;13.63;;
43527;SDS011;52359;42.658;23.320;2022-09-01T01:40:40;18.60;;;14.68;;
43527;SDS011;52359;42.658;23.320;2022-09-01T01:43:06;18.70;;;13.63;;
43527;SDS011;52359;42.658;23.320;2022-09-01T01:45:33;21.23;;;14.25;;
43527;SDS011;52359;42.658;23.320;2022-09-01T01:47:59;19.77;;;14.65;;
43527;SDS011;52359;42.658;23.320;2022-09-01T01:50:34;16.70;;;13.15;;
43527;SDS011;52359;42.658;23.320;2022-09-01T01:53:03;20.25;;;13.30;;
43527;SDS011;52359;42.658;23.320;2022-09-01T01:55:29;16.73;;;14.55;;
43527;SDS011;52359;42.658;23.320;2022-09-01T01:57:56;16.98;;;13.77;;
43527;SDS011;52359;42.658;23.320;2022-09-01T02:00:23;20.65;;;14.20;;
43527;SDS011;52359;42.658;23.320;2022-09-01T02:02:51;16.40;;;13.45;;
43527;SDS011;52359;42.658;23.320;2022-09-01T02:05:18;19.00;;;14.10;;
43527;SDS011;52359;42.658;23.320;2022-09-01T02:07:47;24.35;;;14.63;;
43527;SDS011;52359;42.658;23.320;2022-09-01T02:10:14;16.60;;;14.65;;
43527;SDS011;52359;42.658;23.320;2022-09-01T02:12:40;17.67;;;13.98;;
43527;SDS011;52359;42.658;23.320;2022-09-01T02:15:07;16.45;;;13.25;;
43527;SDS011;52359;42.658;23.320;2022-09-01T02:17:36;19.50;;;13.98;;
43527;SDS011;52359;42.658;23.320;2022-09-01T02:20:04;20.30;;;14.57;;
43527;SDS011;52359;42.658;23.320;2022-09-01T02:22:30;15.52;;;13.57;;
43527;SDS011;52359;42.658;23.320;2022-09-01T02:24:57;15.93;;;13.30;;
43527;SDS011;52359;42.658;23.320;2022-09-01T02:27:25;21.98;;;13.57;;
43527;SDS011;52359;42.658;23.320;2022-09-01T02:29:53;19.50;;;12.90;;
43527;SDS011;52359;42.658;23.320;2022-09-01T02:32:19;18.35;;;13.23;;
43527;SDS011;52359;42.658;23.320;2022-09-01T02:34:49;14.98;;;12.88;;
43527;SDS011;52359;42.658;23.320;2022-09-01T02:37:20;16.95;;;12.93;;
43527;SDS011;52359;42.658;23.320;2022-09-01T02:39:50;17.17;;;13.37;;
43527;SDS011;52359;42.658;23.320;2022-09-01T02:42:17;25.63;;;14.43;;
43527;SDS011;52359;42.658;23.320;2022-09-01T02:44:46;23.13;;;14.50;;
43527;SDS011;52359;42.658;23.320;2022-09-01T02:47:12;21.58;;;14.52;;
43527;SDS011;52359;42.658;23.320;2022-09-01T02:49:40;41.65;;;14.32;;
43527;SDS011;52359;42.658;23.320;2022-09-01T02:52:07;30.20;;;14.65;;
43527;SDS011;52359;42.658;23.320;2022-09-01T02:54:34;30.17;;;16.98;;
43527;SDS011;52359;42.658;23.320;2022-09-01T02:57:00;23.52;;;14.93;;
43527;SDS011;52359;42.658;23.320;2022-09-01T02:59:27;24.05;;;15.55;;
43527;SDS011;52359;42.658;23.320;2022-09-01T03:01:54;23.05;;;15.27;;
43527;SDS011;52359;42.658;23.320;2022-09-01T03:04:21;24.30;;;15.32;;
43527;SDS011;52359;42.658;23.320;2022-09-01T03:06:48;26.67;;;13.65;;
43527;SDS011;52359;42.658;23.320;2022-09-01T03:09:18;17.08;;;13.02;;
43527;SDS011;52359;42.658;23.320;2022-09-01T03:11:46;21.73;;;14.18;;
43527;SDS011;52359;42.658;23.320;2022-09-01T03:14:12;22.10;;;13.95;;
43527;SDS011;52359;42.658;23.320;2022-09-01T03:16:38;19.20;;;14.27;;
43527;SDS011;52359;42.658;23.320;2022-09-01T03:19:06;28.17;;;15.35;;
43527;SDS011;52359;42.658;23.320;2022-09-01T03:21:33;28.88;;;15.93;;
43527;SDS011;52359;42.658;23.320;2022-09-01T03:23:59;43.40;;;15.00;;
43527;SDS011;52359;42.658;23.320;2022-09-01T03:26:28;34.63;;;16.27;;
43527;SDS011;52359;42.658;23.320;2022-09-01T03:28:54;31.65;;;15.65;;
43527;SDS011;52359;42.658;23.320;2022-09-01T03:31:20;24.20;;;14.95;;
43527;SDS011;52359;42.658;23.320;2022-09-01T03:33:46;42.72;;;15.00;;
43527;SDS011;52359;42.658;23.320;2022-09-01T03:36:12;30.77;;;15.60;;
43527;SDS011;52359;42.658;23.320;2022-09-01T03:38:46;21.83;;;13.52;;
43527;SDS011;52359;42.658;23.320;2022-09-01T03:41:14;29.95;;;14.38;;
43527;SDS011;52359;42.658;23.320;2022-09-01T03:43:41;32.05;;;15.70;;
43527;SDS011;52359;42.658;23.320;2022-09-01T03:46:08;22.50;;;14.98;;
43527;SDS011;52359;42.658;23.320;2022-09-01T03:48:36;19.25;;;13.75;;
43527;SDS011;52359;42.658;23.320;2022-09-01T03:51:03;17.48;;;13.23;;
43527;SDS011;52359;42.658;23.320;2022-09-01T03:53:31;21.67;;;14.35;;
43527;SDS011;52359;42.658;23.320;2022-09-01T03:55:59;21.15;;;13.85;;
43527;SDS011;52359;42.658;23.320;2022-09-01T03:58:28;31.67;;;16.38;;
43527;SDS011;52359;42.658;23.320;2022-09-01T04:00:55;22.15;;;17.42;;
43527;SDS011;52359;42.658;23.320;2022-09-01T04:03:23;29.98;;;15.23;;
43527;SDS011;52359;42.658;23.320;2022-09-01T04:05:50;26.08;;;14.30;;
43527;SDS011;52359;42.658;23.320;2022-09-01T04:08:16;20.48;;;13.75;;
43527;SDS011;52359;42.658;23.320;2022-09-01T04:10:44;27.98;;;15.32;;
43527;SDS011;52359;42.658;23.320;2022-09-01T04:13:13;31.58;;;17.02;;
43527;SDS011;52359;42.658;23.320;2022-09-01T04:15:39;39.22;;;16.40;;
43527;SDS011;52359;42.658;23.320;2022-09-01T04:18:05;24.90;;;16.63;;
43527;SDS011;52359;42.658;23.320;2022-09-01T04:20:38;23.60;;;15.63;;
43527;SDS011;52359;42.658;23.320;2022-09-01T04:23:18;26.17;;;15.98;;
43527;SDS011;52359;42.658;23.320;2022-09-01T04:25:47;35.47;;;17.13;;
43527;SDS011;52359;42.658;23.320;2022-09-01T04:28:18;29.83;;;18.27;;
43527;SDS011;52359;42.658;23.320;2022-09-01T04:30:53;49.10;;;20.17;;
43527;SDS011;52359;42.658;23.320;2022-09-01T04:33:20;37.45;;;20.23;;
43527;SDS011;52359;42.658;23.320;2022-09-01T04:35:48;48.75;;;18.15;;
43527;SDS011;52359;42.658;23.320;2022-09-01T04:38:15;48.45;;;18.52;;
43527;SDS011;52359;42.658;23.320;2022-09-01T04:40:42;30.10;;;17.02;;
43527;SDS011;52359;42.658;23.320;2022-09-01T04:43:08;54.10;;;17.88;;
43527;SDS011;52359;42.658;23.320;2022-09-01T04:45:34;39.17;;;15.88;;
43527;SDS011;52359;42.658;23.320;2022-09-01T04:48:01;20.88;;;15.38;;
43527;SDS011;52359;42.658;23.320;2022-09-01T04:50:27;26.17;;;16.23;;
43527;SDS011;52359;42.658;23.320;2022-09-01T04:52:56;28.80;;;16.58;;
43527;SDS011;52359;42.658;23.320;2022-09-01T04:55:25;24.08;;;16.85;;
43527;SDS011;52359;42.658;23.320;2022-09-01T04:57:54;22.00;;;16.55;;
43527;SDS011;52359;42.658;23.320;2022-09-01T05:00:22;29.25;;;16.02;;
43527;SDS011;52359;42.658;23.320;2022-09-01T05:02:49;21.98;;;15.40;;
43527;SDS011;52359;42.658;23.320;2022-09-01T05:05:18;35.05;;;17.50;;
43527;SDS011;52359;42.658;23.320;2022-09-01T05:07:44;19.23;;;16.15;;
43527;SDS011;52359;42.658;23.320;2022-09-01T05:10:11;30.35;;;18.15;;
43527;SDS011;52359;42.658;23.320;2022-09-01T05:12:37;26.67;;;18.08;;
43527;SDS011;52359;42.658;23.320;2022-09-01T05:15:05;25.73;;;16.70;;
43527;SDS011;52359;42.658;23.320;2022-09-01T05:17:33;27.50;;;18.13;;
43527;SDS011;52359;42.658;23.320;2022-09-01T05:20:02;26.75;;;17.95;;
43527;SDS011;52359;42.658;23.320;2022-09-01T05:22:28;28.13;;;17.98;;
43527;SDS011;52359;42.658;23.320;2022-09-01T05:24:55;88.13;;;20.02;;
43527;SDS011;52359;42.658;23.320;2022-09-01T05:27:22;75.47;;;20.23;;
43527;SDS011;52359;42.658;23.320;2022-09-01T05:29:48;52.53;;;22.55;;
43527;SDS011;52359;42.658;23.320;2022-09-01T05:32:14;43.70;;;22.52;;
43527;SDS011;52359;42.658;23.320;2022-09-01T05:34:40;41.72;;;22.25;;
43527;SDS011;52359;42.658;23.320;2022-09-01T05:37:07;33.33;;;19.58;;
43527;SDS011;52359;42.658;23.320;2022-09-01T05:39:37;39.28;;;21.90;;
43527;SDS011;52359;42.658;23.320;2022-09-01T05:42:03;35.30;;;20.50;;
43527;SDS011;52359;42.658;23.320;2022-09-01T05:44:32;37.03;;;20.42;;
43527;SDS011;52359;42.658;23.320;2022-09-01T05:46:58;35.47;;;19.33;;
43527;SDS011;52359;42.658;23.320;2022-09-01T05:49:24;51.30;;;18.75;;
43527;SDS011;52359;42.658;23.320;2022-09-01T05:51:50;43.85;;;22.08;;
43527;SDS011;52359;42.658;23.320;2022-09-01T05:54:19;39.33;;;19.33;;
43527;SDS011;52359;42.658;23.320;2022-09-01T05:56:47;29.67;;;19.75;;
43527;SDS011;52359;42.658;23.320;2022-09-01T05:59:13;42.28;;;27.13;;
43527;SDS011;52359;42.658;23.320;2022-09-01T06:01:40;38.13;;;22.23;;
43527;SDS011;52359;42.658;23.320;2022-09-01T06:04:07;24.42;;;19.45;;
43527;SDS011;52359;42.658;23.320;2022-09-01T06:06:36;23.40;;;18.33;;
43527;SDS011;52359;42.658;23.320;2022-09-01T06:09:03;25.35;;;16.90;;
43527;SDS011;52359;42.658;23.320;2022-09-01T06:11:29;28.60;;;16.42;;
43527;SDS011;52359;42.658;23.320;2022-09-01T06:13:57;21.60;;;15.80;;
43527;SDS011;52359;42.658;23.320;2022-09-01T06:16:23;26.80;;;16.27;;
43527;SDS011;52359;42.658;23.320;2022-09-01T06:18:49;24.65;;;16.00;;
43527;SDS011;52359;42.658;23.320;2022-09-01T06:21:19;22.10;;;16.90;;
43527;SDS011;52359;42.658;23.320;2022-09-01T06:23:46;32.00;;;19.38;;
43527;SDS011;52359;42.658;23.320;2022-09-01T06:26:22;22.15;;;15.48;;
43527;SDS011;52359;42.658;23.320;2022-09-01T06:28:51;38.00;;;16.05;;
43527;SDS011;52359;42.658;23.320;2022-09-01T06:31:22;24.90;;;16.38;;
43527;SDS011;52359;42.658;23.320;2022-09-01T06:33:49;26.05;;;17.85;;
43527;SDS011;52359;42.658;23.320;2022-09-01T06:36:17;25.35;;;17.10;;
43527;SDS011;52359;42.658;23.320;2022-09-01T06:38:44;32.13;;;19.42;;
43527;SDS011;52359;42.658;23.320;2022-09-01T06:41:11;27.77;;;19.10;;
43527;SDS011;52359;42.658;23.320;2022-09-01T06:43:40;31.60;;;18.27;;
43527;SDS011;52359;42.658;23.320;2022-09-01T06:46:07;42.33;;;19.88;;
43527;SDS011;52359;42.658;23.320;2022-09-01T06:48:35;29.30;;;19.65;;
43527;SDS011;52359;42.658;23.320;2022-09-01T06:51:04;27.27;;;19.73;;
43527;SDS011;52359;42.658;23.320;2022-09-01T06:53:33;30.70;;;19.42;;
43527;SDS011;52359;42.658;23.320;2022-09-01T06:55:59;33.42;;;19.23;;
43527;SDS011;52359;42.658;23.320;2022-09-01T06:58:26;36.38;;;20.92;;
43527;SDS011;52359;42.658;23.320;2022-09-01T07:00:55;53.45;;;20.73;;
43527;SDS011;52359;42.658;23.320;2022-09-01T07:03:21;31.73;;;18.83;;
43527;SDS011;52359;42.658;23.320;2022-09-01T07:05:47;39.75;;;20.00;;
43527;SDS011;52359;42.658;23.320;2022-09-01T07:08:15;31.83;;;18.05;;
43527;SDS011;52359;42.658;23.320;2022-09-01T07:10:48;33.13;;;21.17;;
43527;SDS011;52359;42.658;23.320;2022-09-01T07:13:16;33.47;;;19.00;;
43527;SDS011;52359;42.658;23.320;2022-09-01T07:15:46;28.60;;;19.67;;
43527;SDS011;52359;42.658;23.320;2022-09-01T07:18:14;39.95;;;20.92;;
43527;SDS011;52359;42.658;23.320;2022-09-01T07:20:41;28.45;;;18.80;;
43527;SDS011;52359;42.658;23.320;2022-09-01T07:23:08;40.55;;;20.25;;
43527;SDS011;52359;42.658;23.320;2022-09-01T07:25:40;37.55;;;20.90;;
43527;SDS011;52359;42.658;23.320;2022-09-01T07:28:07;36.03;;;18.33;;
43527;SDS011;52359;42.658;23.320;2022-09-01T07:30:38;26.23;;;17.63;;
43527;SDS011;52359;42.658;23.320;2022-09-01T07:33:05;39.30;;;18.85;;
43527;SDS011;52359;42.658;23.320;2022-09-01T07:35:36;36.88;;;19.83;;
43527;SDS011;52359;42.658;23.320;2022-09-01T07:38:02;37.20;;;22.33;;
43527;SDS011;52359;42.658;23.320;2022-09-01T07:40:32;28.23;;;17.55;;
43527;SDS011;52359;42.658;23.320;2022-09-01T07:43:02;27.40;;;17.05;;
43527;SDS011;52359;42.658;23.320;2022-09-01T07:45:32;29.30;;;17.85;;
43527;SDS011;52359;42.658;23.320;2022-09-01T07:47:59;30.92;;;17.15;;
43527;SDS011;52359;42.658;23.320;2022-09-01T07:50:30;28.42;;;17.60;;
43527;SDS011;52359;42.658;23.320;2022-09-01T07:52:56;27.67;;;17.35;;
43527;SDS011;52359;42.658;23.320;2022-09-01T07:55:24;24.45;;;16.92;;
43527;SDS011;52359;42.658;23.320;2022-09-01T07:57:52;24.30;;;16.88;;
43527;SDS011;52359;42.658;23.320;2022-09-01T08:00:18;25.70;;;16.40;;
43527;SDS011;52359;42.658;23.320;2022-09-01T08:02:46;26.23;;;16.92;;
43527;SDS011;52359;42.658;23.320;2022-09-01T08:05:14;31.98;;;15.52;;
43527;SDS011;52359;42.658;23.320;2022-09-01T08:07:41;24.85;;;16.27;;
43527;SDS011;52359;42.658;23.320;2022-09-01T08:10:07;32.33;;;18.08;;
43527;SDS011;52359;42.658;23.320;2022-09-01T08:12:34;32.17;;;16.52;;
43527;SDS011;52359;42.658;23.320;2022-09-01T08:15:00;36.60;;;17.48;;
43527;SDS011;52359;42.658;23.320;2022-09-01T08:17:26;30.13;;;18.05;;
43527;SDS011;52359;42.658;23.320;2022-09-01T08:19:52;31.77;;;18.88;;
43527;SDS011;52359;42.658;23.320;2022-09-01T08:22:19;39.38;;;16.73;;
43527;SDS011;52359;42.658;23.320;2022-09-01T08:24:48;33.17;;;16.92;;
43527;SDS011;52359;42.658;23.320;2022-09-01T08:27:14;30.15;;;16.10;;
43527;SDS011;52359;42.658;23.320;2022-09-01T08:29:40;25.85;;;16.95;;
43527;SDS011;52359;42.658;23.320;2022-09-01T08:32:07;24.52;;;15.45;;
43527;SDS011;52359;42.658;23.320;2022-09-01T08:34:34;23.92;;;15.02;;
43527;SDS011;52359;42.658;23.320;2022-09-01T08:37:01;29.63;;;16.83;;
43527;SDS011;52359;42.658;23.320;2022-09-01T08:39:27;29.60;;;16.23;;
43527;SDS011;52359;42.658;23.320;2022-09-01T08:47:06;30.42;;;15.55;;
43527;SDS011;52359;42.658;23.320;2022-09-01T08:49:33;25.20;;;17.08;;
43527;SDS011;52359;42.658;23.320;2022-09-01T08:52:10;35.95;;;19.05;;
43527;SDS011;52359;42.658;23.320;2022-09-01T08:54:43;24.75;;;17.20;;
43527;SDS011;52359;42.658;23.320;2022-09-01T08:57:13;32.25;;;16.60;;
43527;SDS011;52359;42.658;23.320;2022-09-01T08:59:41;20.85;;;15.02;;
43527;SDS011;52359;42.658;23.320;2022-09-01T09:02:29;25.05;;;14.75;;
43527;SDS011;52359;42.658;23.320;2022-09-01T09:05:01;25.80;;;14.77;;
43527;SDS011;52359;42.658;23.320;2022-09-01T09:10:17;20.50;;;14.48;;
43527;SDS011;52359;42.658;23.320;2022-09-01T09:18:21;20.08;;;13.90;;
43527;SDS011;52359;42.658;23.320;2022-09-01T09:20:49;26.52;;;12.23;;
43527;SDS011;52359;42.658;23.320;2022-09-01T09:23:27;26.85;;;13.43;;
43527;SDS011;52359;42.658;23.320;2022-09-01T09:25:54;17.95;;;12.57;;
43527;SDS011;52359;42.658;23.320;2022-09-01T09:28:22;20.58;;;10.93;;
43527;SDS011;52359;42.658;23.320;2022-09-01T09:30:48;23.27;;;11.77;;
43527;SDS011;52359;42.658;23.320;2022-09-01T09:36:17;19.50;;;11.57;;
43527;SDS011;52359;42.658;23.320;2022-09-01T09:41:33;22.75;;;11.15;;
43527;SDS011;52359;42.658;23.320;2022-09-01T09:46:44;18.85;;;9.90;;
43527;SDS011;52359;42.658;23.320;2022-09-01T09:54:35;23.15;;;11.07;;
43527;SDS011;52359;42.658;23.320;2022-09-01T09:57:12;23.08;;;10.55;;
43527;SDS011;52359;42.658;23.320;2022-09-01T09:59:46;11.02;;;9.45;;
43527;SDS011;52359;42.658;23.320;2022-09-01T10:02:15;18.00;;;9.52;;
43527;SDS011;52359;42.658;23.320;2022-09-01T10:04:45;23.05;;;10.13;;
43527;SDS011;52359;42.658;23.320;2022-09-01T10:07:45;16.10;;;9.52;;
43527;SDS011;52359;42.658;23.320;2022-09-01T10:10:06;17.98;;;10.38;;
43527;SDS011;52359;42.658;23.320;2022-09-01T10:12:51;16.17;;;10.57;;
43527;SDS011;52359;42.658;23.320;2022-09-01T10:15:21;15.52;;;9.90;;
43527;SDS011;52359;42.658;23.320;2022-09-01T10:17:48;14.65;;;9.80;;
43527;SDS011;52359;42.658;23.320;2022-09-01T10:20:21;11.65;;;9.93;;
43527;SDS011;52359;42.658;23.320;2022-09-01T10:22:49;21.17;;;9.82;;
43527;SDS011;52359;42.658;23.320;2022-09-01T10:25:17;14.70;;;10.15;;
43527;SDS011;52359;42.658;23.320;2022-09-01T10:27:50;17.17;;;9.85;;
43527;SDS011;52359;42.658;23.320;2022-09-01T10:30:21;18.35;;;9.60;;
43527;SDS011;52359;42.658;23.320;2022-09-01T10:35:18;11.10;;;8.85;;
43527;SDS011;52359;42.658;23.320;2022-09-01T10:38:19;11.48;;;8.38;;
43527;SDS011;52359;42.658;23.320;2022-09-01T10:40:56;14.10;;;9.13;;
43527;SDS011;52359;42.658;23.320;2022-09-01T10:48:47;13.80;;;9.32;;
43527;SDS011;52359;42.658;23.320;2022-09-01T10:53:50;21.42;;;14.02;;
43527;SDS011;52359;42.658;23.320;2022-09-01T10:56:18;23.17;;;14.07;;
43527;SDS011;52359;42.658;23.320;2022-09-01T11:04:05;22.42;;;9.63;;
43527;SDS011;52359;42.658;23.320;2022-09-01T11:09:04;25.83;;;9.80;;
43527;SDS011;52359;42.658;23.320;2022-09-01T11:11:39;13.88;;;8.93;;
43527;SDS011;52359;42.658;23.320;2022-09-01T11:14:17;16.52;;;9.70;;
43527;SDS011;52359;42.658;23.320;2022-09-01T11:17:09;21.77;;;8.88;;
43527;SDS011;52359;42.658;23.320;2022-09-01T11:19:38;19.35;;;8.77;;
43527;SDS011;52359;42.658;23.320;2022-09-01T11:27:06;18.55;;;8.40;;
43527;SDS011;52359;42.658;23.320;2022-09-01T11:32:17;15.05;;;7.30;;
43527;SDS011;52359;42.658;23.320;2022-09-01T11:34:43;23.27;;;7.60;;
43527;SDS011;52359;42.658;23.320;2022-09-01T11:37:17;11.95;;;6.93;;
43527;SDS011;52359;42.658;23.320;2022-09-01T11:39:48;13.07;;;7.47;;
43527;SDS011;52359;42.658;23.320;2022-09-01T11:50:03;20.23;;;7.80;;
43527;SDS011;52359;42.658;23.320;2022-09-01T11:52:42;10.35;;;6.95;;
43527;SDS011;52359;42.658;23.320;2022-09-01T11:55:31;30.45;;;6.28;;
43527;SDS011;52359;42.658;23.320;2022-09-01T11:57:58;8.32;;;6.22;;
43527;SDS011;52359;42.658;23.320;2022-09-01T12:00:29;9.00;;;6.20;;
43527;SDS011;52359;42.658;23.320;2022-09-01T12:02:56;10.73;;;6.13;;
43527;SDS011;52359;42.658;23.320;2022-09-01T12:05:29;16.08;;;6.40;;
43527;SDS011;52359;42.658;23.320;2022-09-01T12:07:59;15.25;;;8.57;;
43527;SDS011;52359;42.658;23.320;2022-09-01T12:15:30;14.60;;;6.90;;
43527;SDS011;52359;42.658;23.320;2022-09-01T12:20:59;9.13;;;6.20;;
43527;SDS011;52359;42.658;23.320;2022-09-01T12:25:57;13.13;;;6.03;;
43527;SDS011;52359;42.658;23.320;2022-09-01T12:28:24;12.30;;;6.28;;
43527;SDS011;52359;42.658;23.320;2022-09-01T12:30:51;22.05;;;6.80;;
43527;SDS011;52359;42.658;23.320;2022-09-01T12:33:18;26.27;;;13.05;;
43527;SDS011;52359;42.658;23.320;2022-09-01T12:35:45;15.48;;;9.70;;
43527;SDS011;52359;42.658;23.320;2022-09-01T12:40:43;10.40;;;6.60;;
43527;SDS011;52359;42.658;23.320;2022-09-01T12:43:10;19.13;;;7.30;;
43527;SDS011;52359;42.658;23.320;2022-09-01T12:45:43;29.77;;;7.50;;
43527;SDS011;52359;42.658;23.320;2022-09-01T12:48:23;23.33;;;8.20;;
43527;SDS011;52359;42.658;23.320;2022-09-01T12:50:49;14.27;;;6.68;;
43527;SDS011;52359;42.658;23.320;2022-09-01T12:53:17;16.45;;;7.80;;
43527;SDS011;52359;42.658;23.320;2022-09-01T12:55:53;11.30;;;7.30;;
43527;SDS011;52359;42.658;23.320;2022-09-01T12:58:20;12.43;;;6.97;;
43527;SDS011;52359;42.658;23.320;2022-09-01T13:03:25;10.48;;;7.60;;
43527;SDS011;52359;42.658;23.320;2022-09-01T13:05:55;9.02;;;7.68;;
43527;SDS011;52359;42.658;23.320;2022-09-01T13:08:24;11.63;;;8.00;;
43527;SDS011;52359;42.658;23.320;2022-09-01T13:10:51;12.75;;;7.70;;
43527;SDS011;52359;42.658;23.320;2022-09-01T13:13:18;11.73;;;7.63;;
43527;SDS011;52359;42.658;23.320;2022-09-01T13:15:46;17.27;;;8.07;;
43527;SDS011;52359;42.658;23.320;2022-09-01T13:18:14;17.65;;;7.60;;
43527;SDS011;52359;42.658;23.320;2022-09-01T13:20:41;15.02;;;8.45;;
43527;SDS011;52359;42.658;23.320;2022-09-01T13:23:07;13.55;;;7.38;;
43527;SDS011;52359;42.658;23.320;2022-09-01T13:25:34;18.98;;;8.48;;
43527;SDS011;52359;42.658;23.320;2022-09-01T13:28:00;13.88;;;8.50;;
43527;SDS011;52359;42.658;23.320;2022-09-01T13:30:27;18.17;;;8.10;;
43527;SDS011;52359;42.658;23.320;2022-09-01T13:32:54;15.32;;;8.07;;
43527;SDS011;52359;42.658;23.320;2022-09-01T13:35:21;11.15;;;7.53;;
43527;SDS011;52359;42.658;23.320;2022-09-01T13:37:47;15.35;;;8.45;;
43527;SDS011;52359;42.658;23.320;2022-09-01T13:40:14;13.90;;;8.25;;
43527;SDS011;52359;42.658;23.320;2022-09-01T13:42:42;13.95;;;8.60;;
43527;SDS011;52359;42.658;23.320;2022-09-01T13:45:09;23.90;;;8.57;;
43527;SDS011;52359;42.658;23.320;2022-09-01T13:47:40;18.88;;;8.38;;
43527;SDS011;52359;42.658;23.320;2022-09-01T13:50:07;19.20;;;8.02;;
43527;SDS011;52359;42.658;23.320;2022-09-01T13:52:35;12.45;;;7.68;;
43527;SDS011;52359;42.658;23.320;2022-09-01T13:55:01;9.48;;;7.25;;
43527;SDS011;52359;42.658;23.320;2022-09-01T13:57:28;11.30;;;7.15;;
43527;SDS011;52359;42.658;23.320;2022-09-01T13:59:54;10.13;;;7.10;;
43527;SDS011;52359;42.658;23.320;2022-09-01T14:02:22;15.88;;;8.40;;
43527;SDS011;52359;42.658;23.320;2022-09-01T14:04:48;13.68;;;6.90;;
43527;SDS011;52359;42.658;23.320;2022-09-01T14:07:13;10.55;;;6.60;;
43527;SDS011;52359;42.658;23.320;2022-09-01T14:09:40;9.55;;;7.22;;
43527;SDS011;52359;42.658;23.320;2022-09-01T14:12:05;15.48;;;8.02;;
43527;SDS011;52359;42.658;23.320;2022-09-01T14:14:32;12.00;;;7.22;;
43527;SDS011;52359;42.658;23.320;2022-09-01T14:16:58;9.38;;;7.95;;
43527;SDS011;52359;42.658;23.320;2022-09-01T14:19:25;12.90;;;7.88;;
43527;SDS011;52359;42.658;23.320;2022-09-01T14:21:52;11.25;;;7.75;;
43527;SDS011;52359;42.658;23.320;2022-09-01T14:24:18;12.40;;;8.38;;
43527;SDS011;52359;42.658;23.320;2022-09-01T14:26:45;13.13;;;8.45;;
43527;SDS011;52359;42.658;23.320;2022-09-01T14:29:11;15.98;;;8.48;;
43527;SDS011;52359;42.658;23.320;2022-09-01T14:31:37;10.50;;;8.63;;
43527;SDS011;52359;42.658;23.320;2022-09-01T14:34:03;14.35;;;8.93;;
43527;SDS011;52359;42.658;23.320;2022-09-01T14:36:30;13.93;;;7.78;;
43527;SDS011;52359;42.658;23.320;2022-09-01T14:38:56;10.82;;;8.73;;
43527;SDS011;52359;42.658;23.320;2022-09-01T14:41:23;13.68;;;8.77;;
43527;SDS011;52359;42.658;23.320;2022-09-01T14:43:50;11.23;;;8.38;;
43527;SDS011;52359;42.658;23.320;2022-09-01T14:46:16;10.77;;;7.93;;
43527;SDS011;52359;42.658;23.320;2022-09-01T14:48:44;14.18;;;8.27;;
43527;SDS011;52359;42.658;23.320;2022-09-01T14:51:19;12.15;;;8.02;;
43527;SDS011;52359;42.658;23.320;2022-09-01T14:53:50;15.48;;;8.40;;
43527;SDS011;52359;42.658;23.320;2022-09-01T14:56:18;12.73;;;8.23;;
43527;SDS011;52359;42.658;23.320;2022-09-01T14:58:45;18.85;;;7.85;;
43527;SDS011;52359;42.658;23.320;2022-09-01T15:01:16;10.00;;;7.88;;
43527;SDS011;52359;42.658;23.320;2022-09-01T15:03:45;11.65;;;8.10;;
43527;SDS011;52359;42.658;23.320;2022-09-01T15:06:12;10.75;;;8.18;;
43527;SDS011;52359;42.658;23.320;2022-09-01T15:08:39;10.70;;;7.28;;
43527;SDS011;52359;42.658;23.320;2022-09-01T15:11:09;14.00;;;7.70;;
43527;SDS011;52359;42.658;23.320;2022-09-01T15:13:37;15.15;;;7.18;;
43527;SDS011;52359;42.658;23.320;2022-09-01T15:16:03;13.07;;;7.70;;
43527;SDS011;52359;42.658;23.320;2022-09-01T15:18:30;9.68;;;7.20;;
43527;SDS011;52359;42.658;23.320;2022-09-01T15:20:56;11.48;;;7.63;;
43527;SDS011;52359;42.658;23.320;2022-09-01T15:23:23;12.07;;;7.03;;
43527;SDS011;52359;42.658;23.320;2022-09-01T15:25:51;50.08;;;9.65;;
43527;SDS011;52359;42.658;23.320;2022-09-01T15:28:18;34.67;;;8.93;;
43527;SDS011;52359;42.658;23.320;2022-09-01T15:30:44;30.75;;;9.10;;
43527;SDS011;52359;42.658;23.320;2022-09-01T15:33:11;12.55;;;8.38;;
43527;SDS011;52359;42.658;23.320;2022-09-01T15:35:38;28.92;;;9.57;;
43527;SDS011;52359;42.658;23.320;2022-09-01T15:38:04;16.20;;;8.77;;
43527;SDS011;52359;42.658;23.320;2022-09-01T15:40:31;14.32;;;8.55;;
43527;SDS011;52359;42.658;23.320;2022-09-01T15:42:58;16.40;;;8.90;;